createdAt,value
2022-11-01T00:01:07.730Z,96.53
2022-11-01T00:03:34.511Z,96.40
2022-11-01T00:06:01.034Z,117.77
2022-11-01T00:08:27.945Z,112.23
2022-11-01T00:11:04.845Z,76.80
2022-11-01T00:13:31.607Z,116.70
2022-11-01T00:15:58.533Z,102.87
2022-11-01T00:18:26.836Z,78.23
2022-11-01T00:20:53.583Z,68.53
2022-11-01T00:23:20.032Z,77.60
2022-11-01T00:25:46.731Z,71.50
2022-11-01T00:28:13.582Z,72.07
2022-11-01T00:30:40.578Z,71.03
2022-11-01T00:33:07.422Z,76.87
2022-11-01T00:35:36.920Z,64.27
2022-11-01T00:38:04.776Z,77.17
2022-11-01T00:40:31.573Z,73.40
2022-11-01T00:42:58.095Z,89.03
2022-11-01T00:45:25.028Z,106.57
2022-11-01T00:47:51.512Z,89.13
2022-11-01T00:50:17.915Z,99.00
2022-11-01T00:52:44.331Z,74.63
2022-11-01T00:55:10.748Z,90.27
2022-11-01T00:57:37.365Z,92.23
2022-11-01T01:00:04.971Z,85.50
2022-11-01T01:02:31.517Z,77.97
2022-11-01T01:04:58.260Z,72.80
2022-11-01T01:07:25.075Z,64.30
2022-11-01T01:09:51.549Z,70.13
2022-11-01T01:12:18.114Z,63.43
2022-11-01T01:14:44.529Z,62.17
2022-11-01T01:17:11.038Z,71.47
2022-11-01T01:19:37.459Z,61.87
2022-11-01T01:22:04.223Z,64.30
2022-11-01T01:24:31.935Z,65.43
2022-11-01T01:26:58.562Z,75.27
2022-11-01T01:29:25.398Z,69.43
2022-11-01T01:31:52.380Z,65.53
2022-11-01T01:34:19.060Z,68.97
2022-11-01T01:36:46.743Z,76.10
2022-11-01T01:39:13.533Z,65.23
2022-11-01T01:41:57.949Z,76.63
2022-11-01T01:44:52.327Z,63.67
2022-11-01T01:47:26.276Z,86.43
2022-11-01T01:50:23.770Z,64.53
2022-11-01T01:52:59.335Z,73.30
2022-11-01T01:55:31.151Z,54.73
2022-11-01T01:57:58.109Z,60.33
2022-11-01T02:00:26.523Z,54.90
2022-11-01T02:02:53.152Z,74.10
2022-11-01T02:05:26.520Z,71.17
2022-11-01T02:07:53.519Z,71.57
2022-11-01T02:10:20.690Z,60.77
2022-11-01T02:12:48.565Z,62.17
2022-11-01T02:15:16.755Z,60.93
2022-11-01T02:17:54.206Z,76.80
2022-11-01T02:20:46.944Z,74.77
2022-11-01T02:23:19.044Z,64.20
2022-11-01T02:26:25.295Z,63.90
2022-11-01T02:29:13.568Z,57.53
2022-11-01T02:32:09.523Z,69.80
2022-11-01T02:34:57.607Z,66.77
2022-11-01T02:37:44.945Z,81.43
2022-11-01T02:40:26.888Z,62.53
2022-11-01T02:42:57.231Z,67.47
2022-11-01T02:45:32.203Z,74.80
2022-11-01T02:48:00.141Z,72.87
2022-11-01T02:50:28.030Z,73.83
2022-11-01T02:52:55.328Z,74.07
2022-11-01T02:55:30.307Z,79.33
2022-11-01T02:58:03.757Z,79.33
2022-11-01T03:00:35.352Z,94.53
2022-11-01T03:03:17.814Z,77.63
2022-11-01T03:05:54.142Z,66.93
2022-11-01T03:08:24.962Z,74.13
2022-11-01T03:11:11.588Z,76.70
2022-11-01T03:14:05.834Z,67.67
2022-11-01T03:16:35.897Z,93.70
2022-11-01T03:19:17.295Z,57.40
2022-11-01T03:21:52.433Z,67.93
2022-11-01T03:24:27.712Z,61.57
2022-11-01T03:27:00.806Z,83.90
2022-11-01T03:29:29.138Z,63.30
2022-11-01T03:31:56.755Z,73.13
2022-11-01T03:34:25.370Z,114.60
2022-11-01T03:36:55.354Z,101.47
2022-11-01T03:39:28.594Z,91.40
2022-11-01T03:41:57.980Z,71.50
2022-11-01T03:44:26.427Z,98.07
2022-11-01T03:46:52.899Z,76.50
2022-11-01T03:49:20.010Z,69.17
2022-11-01T03:51:46.606Z,106.60
2022-11-01T03:54:13.065Z,79.97
2022-11-01T03:56:40.897Z,108.93
2022-11-01T03:59:08.679Z,64.57
2022-11-01T04:01:35.381Z,64.83
2022-11-01T04:04:02.907Z,71.47
2022-11-01T04:06:29.378Z,100.37
2022-11-01T04:08:56.001Z,87.30
2022-11-01T04:11:23.474Z,85.87
2022-11-01T04:13:49.986Z,94.83
2022-11-01T04:16:35.347Z,99.50
2022-11-01T04:19:20.364Z,101.57
2022-11-01T04:21:46.935Z,95.33
2022-11-01T04:24:20.778Z,70.03
2022-11-01T04:26:47.947Z,122.80
2022-11-01T04:29:14.413Z,49.07
2022-11-01T04:31:41.031Z,83.13
2022-11-01T04:34:07.593Z,77.37
2022-11-01T04:36:34.142Z,64.10
2022-11-01T04:39:00.604Z,88.03
2022-11-01T04:41:29.172Z,84.90
2022-11-01T04:43:57.362Z,79.00
2022-11-01T04:46:23.856Z,93.10
2022-11-01T04:48:50.425Z,121.80
2022-11-01T04:51:17.037Z,72.20
2022-11-01T04:53:43.481Z,142.13
2022-11-01T04:56:12.176Z,77.43
2022-11-01T04:58:43.105Z,71.43
2022-11-01T05:01:12.558Z,77.27
2022-11-01T05:03:39.335Z,80.70
2022-11-01T05:06:05.890Z,89.93
2022-11-01T05:08:33.040Z,98.03
2022-11-01T05:10:59.692Z,64.93
2022-11-01T05:13:28.989Z,107.43
2022-11-01T05:16:17.985Z,77.80
2022-11-01T05:18:45.197Z,100.33
2022-11-01T05:21:12.139Z,114.60
2022-11-01T05:23:38.759Z,50.47
2022-11-01T05:26:05.462Z,93.20
2022-11-01T05:28:31.918Z,126.87
2022-11-01T05:30:58.723Z,116.53
2022-11-01T05:33:26.154Z,68.93
2022-11-01T05:35:52.657Z,114.07
2022-11-01T05:38:19.122Z,108.37
2022-11-01T05:40:45.675Z,97.23
2022-11-01T05:43:12.084Z,92.90
2022-11-01T05:45:38.515Z,77.00
2022-11-01T05:48:05.214Z,60.17
2022-11-01T05:50:31.999Z,84.30
2022-11-01T05:53:08.285Z,73.90
2022-11-01T05:55:35.469Z,77.87
2022-11-01T05:58:01.917Z,81.57
2022-11-01T06:00:28.516Z,114.87
2022-11-01T06:02:57.823Z,103.17
2022-11-01T06:05:25.146Z,139.07
2022-11-01T06:07:52.131Z,82.33
2022-11-01T06:10:18.584Z,160.30
2022-11-01T06:12:45.099Z,106.30
2022-11-01T06:15:11.656Z,125.67
2022-11-01T06:17:38.558Z,59.50
2022-11-01T06:20:05.806Z,118.63
2022-11-01T06:22:35.648Z,152.60
2022-11-01T06:25:02.126Z,107.93
2022-11-01T06:27:29.125Z,77.50
2022-11-01T06:29:56.108Z,74.93
2022-11-01T06:32:23.247Z,82.77
2022-11-01T06:34:49.739Z,92.00
2022-11-01T06:37:16.604Z,87.10
2022-11-01T06:39:43.139Z,85.27
2022-11-01T06:42:10.286Z,91.13
2022-11-01T06:44:37.172Z,88.60
2022-11-01T06:47:03.752Z,100.47
2022-11-01T06:49:30.631Z,77.57
2022-11-01T06:51:57.364Z,88.03
2022-11-01T06:54:25.096Z,102.23
2022-11-01T06:56:51.621Z,85.93
2022-11-01T06:59:18.163Z,80.57
2022-11-01T07:01:44.838Z,93.80
2022-11-01T07:06:43.133Z,121.40
2022-11-01T07:09:10.469Z,76.43
2022-11-01T07:11:37.129Z,80.23
2022-11-01T07:14:04.295Z,90.97
2022-11-01T07:16:31.644Z,92.50
2022-11-01T07:18:58.322Z,99.10
2022-11-01T07:21:25.388Z,69.00
2022-11-01T07:23:53.676Z,86.47
2022-11-01T07:26:20.775Z,87.93
2022-11-01T07:28:47.417Z,90.07
2022-11-01T07:31:13.919Z,71.03
2022-11-01T07:33:40.426Z,71.53
2022-11-01T07:36:07.415Z,80.17
2022-11-01T07:38:34.025Z,70.57
2022-11-01T07:41:00.501Z,69.73
2022-11-01T07:43:27.184Z,68.20
2022-11-01T07:45:53.682Z,62.30
2022-11-01T07:48:20.255Z,70.20
2022-11-01T07:50:46.773Z,70.20
2022-11-01T07:53:18.752Z,54.00
2022-11-01T07:55:46.386Z,58.97
2022-11-01T07:58:13.837Z,70.20
2022-11-01T08:00:41.008Z,63.63
2022-11-01T08:03:09.469Z,64.10
2022-11-01T08:05:36.250Z,69.20
2022-11-01T08:08:03.593Z,67.07
2022-11-01T08:10:30.506Z,68.33
2022-11-01T08:13:07.677Z,66.97
2022-11-01T08:15:34.758Z,73.20
2022-11-01T08:18:01.861Z,68.27
2022-11-01T08:20:28.674Z,66.97
2022-11-01T08:22:55.207Z,60.20
2022-11-01T08:25:21.977Z,65.07
2022-11-01T08:27:48.506Z,63.70
2022-11-01T08:30:16.001Z,67.50
2022-11-01T08:32:42.459Z,63.73
2022-11-01T08:35:09.457Z,60.97
2022-11-01T08:37:35.915Z,63.57
2022-11-01T08:40:03.325Z,59.57
2022-11-01T08:42:29.976Z,59.73
2022-11-01T08:44:56.539Z,63.40
2022-11-01T08:47:23.486Z,54.13
2022-11-01T08:49:49.915Z,57.57
2022-11-01T08:52:16.414Z,56.70
2022-11-01T08:54:42.833Z,60.83
2022-11-01T08:57:09.460Z,54.53
2022-11-01T08:59:35.873Z,61.70
2022-11-01T09:02:02.425Z,59.60
2022-11-01T09:04:28.918Z,59.87
2022-11-01T09:06:55.781Z,60.17
2022-11-01T09:09:22.516Z,58.00
2022-11-01T09:11:48.975Z,56.60
2022-11-01T09:14:15.396Z,56.57
2022-11-01T09:16:41.951Z,57.43
2022-11-01T09:19:08.367Z,55.30
2022-11-01T09:21:34.787Z,54.87
2022-11-01T09:24:02.039Z,56.97
2022-11-01T09:26:29.269Z,57.77
2022-11-01T09:28:58.365Z,56.93
2022-11-01T09:31:25.022Z,59.00
2022-11-01T09:33:57.431Z,58.60
2022-11-01T09:36:25.942Z,50.07
2022-11-01T09:38:52.682Z,48.23
2022-11-01T09:41:29.699Z,48.87
2022-11-01T09:44:01.641Z,48.47
2022-11-01T09:46:31.424Z,46.40
2022-11-01T09:49:01.937Z,50.30
2022-11-01T09:51:29.875Z,54.80
2022-11-01T09:53:58.579Z,53.03
2022-11-01T09:56:32.723Z,48.03
2022-11-01T09:59:04.027Z,49.37
2022-11-01T10:01:41.220Z,47.67
2022-11-01T10:04:22.727Z,44.73
2022-11-01T10:06:55.569Z,49.53
2022-11-01T10:09:48.032Z,51.97
2022-11-01T10:12:36.664Z,50.93
2022-11-01T10:15:11.678Z,53.97
2022-11-01T10:17:52.397Z,55.83
2022-11-01T10:20:26.813Z,50.07
2022-11-01T10:22:53.626Z,54.67
2022-11-01T10:25:22.708Z,57.07
2022-11-01T10:28:10.044Z,51.47
2022-11-01T10:30:50.295Z,53.50
2022-11-01T10:33:29.610Z,58.10
2022-11-01T10:36:04.781Z,60.73
2022-11-01T10:39:10.300Z,60.07
2022-11-01T10:41:53.149Z,60.03
2022-11-01T10:44:33.597Z,60.23
2022-11-01T10:47:06.993Z,65.60
2022-11-01T10:50:04.299Z,60.30
2022-11-01T10:52:32.630Z,60.13
2022-11-01T10:54:59.887Z,67.43
2022-11-01T10:57:34.683Z,63.10
2022-11-01T11:00:05.267Z,76.97
2022-11-01T11:02:38.467Z,82.97
2022-11-01T11:05:05.201Z,67.40
2022-11-01T11:07:32.225Z,65.07
2022-11-01T11:12:34.591Z,66.73
2022-11-01T11:15:10.573Z,69.37
2022-11-01T11:17:45.616Z,66.43
2022-11-01T11:20:12.975Z,68.27
2022-11-01T11:22:41.605Z,65.57
2022-11-01T11:25:15.290Z,60.70
2022-11-01T11:27:47.647Z,71.53
2022-11-01T11:30:28.019Z,64.10
2022-11-01T11:32:54.943Z,63.37
2022-11-01T11:35:23.656Z,57.27
2022-11-01T11:37:57.564Z,59.30
2022-11-01T11:40:26.775Z,63.87
2022-11-01T11:42:55.722Z,64.27
2022-11-01T11:45:29.603Z,62.50
2022-11-01T11:47:57.610Z,58.43
2022-11-01T11:50:27.791Z,62.97
2022-11-01T11:53:18.251Z,62.93
2022-11-01T11:56:06.693Z,63.53
2022-11-01T11:58:45.137Z,60.33
2022-11-01T12:01:21.144Z,62.20
2022-11-01T12:03:56.593Z,54.67
2022-11-01T12:06:26.348Z,63.10
2022-11-01T12:08:55.154Z,57.43
2022-11-01T12:11:26.618Z,58.13
2022-11-01T12:14:05.357Z,56.57
2022-11-01T12:16:42.030Z,63.80
2022-11-01T12:19:23.798Z,63.80
2022-11-01T12:21:51.422Z,99.17
2022-11-01T12:24:22.711Z,73.10
2022-11-01T12:26:51.556Z,65.53
2022-11-01T12:29:33.999Z,72.07
2022-11-01T12:32:09.760Z,71.10
2022-11-01T12:34:41.476Z,65.30
2022-11-01T12:37:18.205Z,62.83
2022-11-01T12:40:03.473Z,67.10
2022-11-01T12:42:40.132Z,83.07
2022-11-01T12:45:23.115Z,76.20
2022-11-01T12:47:54.210Z,74.00
2022-11-01T12:50:26.652Z,71.00
2022-11-01T12:53:10.737Z,78.60
2022-11-01T12:55:38.833Z,101.73
2022-11-01T12:58:12.844Z,77.43
2022-11-01T13:00:59.510Z,86.97
2022-11-01T13:03:45.555Z,76.50
2022-11-01T13:06:23.172Z,73.00
2022-11-01T13:09:03.003Z,83.70
2022-11-01T13:12:01.193Z,82.03
2022-11-01T13:14:33.225Z,88.30
2022-11-01T13:17:09.004Z,93.33
2022-11-01T13:20:07.799Z,76.83
2022-11-01T13:22:45.535Z,67.60
2022-11-01T13:25:42.416Z,76.83
2022-11-01T13:28:18.538Z,75.87
2022-11-01T13:31:30.379Z,82.60
2022-11-01T13:34:03.897Z,83.33
2022-11-01T13:36:42.372Z,85.93
2022-11-01T13:39:39.321Z,90.83
2022-11-01T13:42:11.994Z,79.77
2022-11-01T13:44:45.493Z,83.60
2022-11-01T13:47:27.876Z,90.93
2022-11-01T13:50:03.496Z,87.37
2022-11-01T13:52:31.802Z,76.80
2022-11-01T13:55:06.952Z,80.73
2022-11-01T13:57:34.301Z,84.60
2022-11-01T14:00:06.612Z,68.83
2022-11-01T14:02:46.414Z,82.63
2022-11-01T14:05:13.536Z,72.03
2022-11-01T14:07:45.623Z,86.53
2022-11-01T14:10:17.874Z,78.03
2022-11-01T14:12:48.309Z,82.07
2022-11-01T14:15:22.912Z,77.93
2022-11-01T14:18:04.507Z,84.93
2022-11-01T14:20:31.694Z,77.47
2022-11-01T14:22:59.793Z,72.13
2022-11-01T14:25:30.877Z,75.93
2022-11-01T14:28:19.055Z,79.73
2022-11-01T14:30:49.293Z,77.10
2022-11-01T14:33:18.437Z,82.37
2022-11-01T14:35:54.765Z,92.30
2022-11-01T14:38:49.451Z,89.00
2022-11-01T14:41:16.536Z,95.77
2022-11-01T14:43:48.429Z,98.17
2022-11-01T14:46:25.410Z,82.70
2022-11-01T14:49:06.046Z,98.30
2022-11-01T14:51:55.567Z,107.40
2022-11-01T14:54:39.785Z,106.47
2022-11-01T14:57:26.766Z,112.90
2022-11-01T14:59:54.387Z,101.83
2022-11-01T15:02:21.882Z,129.90
2022-11-01T15:04:50.267Z,120.10
2022-11-01T15:07:27.796Z,130.67
2022-11-01T15:10:02.673Z,109.77
2022-11-01T15:12:35.876Z,117.40
2022-11-01T15:15:03.056Z,97.23
2022-11-01T15:17:33.413Z,98.43
2022-11-01T15:20:01.819Z,135.97
2022-11-01T15:22:31.033Z,188.50
2022-11-01T15:25:00.290Z,122.73
2022-11-01T15:27:35.924Z,219.53
2022-11-01T15:30:02.816Z,188.30
2022-11-01T15:32:31.651Z,143.73
2022-11-01T15:35:00.467Z,182.33
2022-11-01T15:37:29.981Z,184.23
2022-11-01T15:39:56.473Z,187.20
2022-11-01T15:42:24.962Z,247.50
2022-11-01T15:44:51.485Z,154.30
2022-11-01T15:47:21.393Z,165.00
2022-11-01T15:49:54.649Z,183.47
2022-11-01T15:52:26.621Z,174.17
2022-11-01T15:55:16.846Z,157.30
2022-11-01T15:58:11.426Z,183.90
2022-11-01T16:00:42.735Z,177.03
2022-11-01T16:03:16.617Z,182.17
2022-11-01T16:05:49.790Z,257.43
2022-11-01T16:08:26.899Z,217.90
2022-11-01T16:10:53.513Z,216.30
2022-11-01T16:13:20.317Z,180.57
2022-11-01T16:16:10.844Z,205.73
2022-11-01T16:18:39.809Z,197.20
2022-11-01T16:21:21.329Z,208.33
2022-11-01T16:24:09.963Z,180.17
2022-11-01T16:27:03.653Z,168.23
2022-11-01T16:29:49.405Z,175.80
2022-11-01T16:32:18.278Z,189.43
2022-11-01T16:34:45.794Z,171.00
2022-11-01T16:37:23.947Z,151.20
2022-11-01T16:39:51.132Z,159.83
2022-11-01T16:42:18.254Z,146.60
2022-11-01T16:44:45.767Z,178.57
2022-11-01T16:47:14.298Z,152.63
2022-11-01T16:49:51.855Z,136.30
2022-11-01T16:52:18.567Z,156.97
2022-11-01T16:54:48.556Z,156.07
2022-11-01T16:57:27.031Z,138.47
2022-11-01T16:59:57.351Z,150.43
2022-11-01T17:02:29.654Z,142.40
2022-11-01T17:05:06.633Z,145.17
2022-11-01T17:07:33.096Z,142.33
2022-11-01T17:09:59.761Z,165.70
2022-11-01T17:12:26.737Z,163.83
2022-11-01T17:14:53.691Z,149.23
2022-11-01T17:17:25.046Z,153.30
2022-11-01T17:19:56.853Z,160.50
2022-11-01T17:22:29.681Z,150.27
2022-11-01T17:24:56.145Z,136.67
2022-11-01T17:27:22.756Z,173.23
2022-11-01T17:29:50.337Z,147.87
2022-11-01T17:32:16.794Z,135.43
2022-11-01T17:34:43.261Z,155.87
2022-11-01T17:37:14.521Z,134.63
2022-11-01T17:39:41.072Z,175.90
2022-11-01T17:42:09.490Z,165.43
2022-11-01T17:44:36.329Z,176.73
2022-11-01T17:47:03.110Z,167.37
2022-11-01T17:49:29.623Z,175.00
2022-11-01T17:51:56.267Z,169.40
2022-11-01T17:54:23.885Z,155.63
2022-11-01T17:56:51.335Z,148.07
2022-11-01T17:59:18.475Z,136.97
2022-11-01T18:01:45.275Z,150.93
2022-11-01T18:04:12.021Z,156.33
2022-11-01T18:06:40.961Z,155.30
2022-11-01T18:09:19.398Z,147.37
2022-11-01T18:12:06.034Z,154.47
2022-11-01T18:17:33.068Z,142.43
2022-11-01T18:20:19.403Z,160.20
2022-11-01T18:22:50.261Z,175.97
2022-11-01T18:25:22.815Z,166.60
2022-11-01T18:27:49.570Z,168.30
2022-11-01T18:30:18.261Z,166.23
2022-11-01T18:33:05.658Z,150.60
2022-11-01T18:35:39.753Z,200.37
2022-11-01T18:38:22.132Z,168.97
2022-11-01T18:41:01.113Z,194.90
2022-11-01T18:43:32.678Z,167.37
2022-11-01T18:48:47.872Z,219.93
2022-11-01T18:51:18.648Z,175.40
2022-11-01T18:53:45.133Z,168.50
2022-11-01T18:56:22.931Z,171.73
2022-11-01T18:58:51.246Z,180.93
2022-11-01T19:01:20.322Z,186.33
2022-11-01T19:04:25.561Z,213.50
2022-11-01T19:06:57.690Z,183.30
2022-11-01T19:09:29.087Z,184.97
2022-11-01T19:11:59.920Z,220.20
2022-11-01T19:14:27.289Z,185.50
2022-11-01T19:16:54.205Z,197.80
2022-11-01T19:19:21.404Z,210.53
2022-11-01T19:21:48.102Z,204.73
2022-11-01T19:24:37.562Z,189.73
2022-11-01T19:27:15.355Z,207.30
2022-11-01T19:29:41.973Z,199.10
2022-11-01T19:32:14.752Z,243.77
2022-11-01T19:34:41.533Z,217.50
2022-11-01T19:37:33.125Z,252.97
2022-11-01T19:40:04.508Z,252.03
2022-11-01T19:42:31.850Z,231.03
2022-11-01T19:45:03.320Z,231.07
2022-11-01T19:47:38.685Z,221.30
2022-11-01T19:50:26.615Z,236.53
2022-11-01T19:52:56.399Z,243.20
2022-11-01T19:55:51.221Z,226.20
2022-11-01T19:58:56.127Z,215.90
2022-11-01T20:01:42.864Z,241.13
2022-11-01T20:04:25.945Z,227.70
2022-11-01T20:07:02.126Z,232.80
2022-11-01T20:09:30.738Z,237.53
2022-11-01T20:11:57.271Z,215.70
2022-11-01T20:14:24.002Z,226.07
2022-11-01T20:16:50.885Z,225.30
2022-11-01T20:19:18.048Z,228.00
2022-11-01T20:21:45.111Z,239.50
2022-11-01T20:24:12.179Z,251.50
2022-11-01T20:26:38.721Z,240.63
2022-11-01T20:29:05.229Z,253.00
2022-11-01T20:31:32.039Z,224.97
2022-11-01T20:34:00.069Z,222.93
2022-11-01T20:36:27.581Z,241.87
2022-11-01T20:38:54.129Z,258.03
2022-11-01T20:41:21.126Z,245.57
2022-11-01T20:43:47.797Z,219.87
2022-11-01T20:46:14.465Z,241.27
2022-11-01T20:48:40.918Z,244.63
2022-11-01T20:51:07.957Z,231.90
2022-11-01T20:53:34.423Z,209.90
2022-11-01T20:56:01.671Z,255.17
2022-11-01T20:58:28.485Z,224.17
2022-11-01T21:00:55.788Z,235.67
2022-11-01T21:03:25.466Z,255.23
2022-11-01T21:05:52.398Z,236.87
2022-11-01T21:08:23.596Z,252.63
2022-11-01T21:10:59.471Z,250.73
2022-11-01T21:13:29.820Z,249.73
2022-11-01T21:15:58.062Z,232.73
2022-11-01T21:18:30.791Z,261.67
2022-11-01T21:20:58.995Z,239.13
2022-11-01T21:23:35.853Z,236.40
2022-11-01T21:26:25.482Z,254.00
2022-11-01T21:29:01.517Z,254.57
2022-11-01T21:31:30.146Z,279.87
2022-11-01T21:34:10.417Z,235.77
2022-11-01T21:36:40.634Z,271.57
2022-11-01T21:39:19.957Z,273.47
2022-11-01T21:42:30.557Z,244.33
2022-11-01T21:44:57.171Z,265.13
2022-11-01T21:47:25.372Z,221.20
2022-11-01T21:49:51.907Z,216.77
2022-11-01T21:52:21.089Z,228.27
2022-11-01T21:54:48.086Z,219.57
2022-11-01T21:57:15.645Z,218.83
2022-11-01T21:59:42.882Z,216.53
2022-11-01T22:02:13.548Z,219.47
2022-11-01T22:04:40.383Z,219.07
2022-11-01T22:07:09.420Z,211.67
2022-11-01T22:09:36.207Z,210.77
2022-11-01T22:12:02.988Z,179.63
2022-11-01T22:14:29.699Z,162.43
2022-11-01T22:16:56.811Z,172.67
2022-11-01T22:19:24.063Z,161.63
2022-11-01T22:21:51.146Z,137.43
2022-11-01T22:24:17.679Z,145.27
2022-11-01T22:26:44.164Z,135.80
2022-11-01T22:29:10.858Z,140.40
2022-11-01T22:31:37.263Z,129.70
2022-11-01T22:34:03.773Z,133.10
2022-11-01T22:36:31.558Z,131.20
2022-11-01T22:38:59.545Z,122.47
2022-11-01T22:41:33.254Z,127.20
2022-11-01T22:44:27.733Z,126.13
2022-11-01T22:46:59.441Z,128.53
2022-11-01T22:49:29.922Z,127.87
2022-11-01T22:52:00.028Z,123.90
2022-11-01T22:54:40.934Z,130.03
2022-11-01T22:57:09.939Z,117.50
2022-11-01T22:59:41.378Z,127.63
2022-11-01T23:02:29.165Z,112.77
2022-11-01T23:05:08.229Z,112.07
2022-11-01T23:07:35.703Z,128.23
2022-11-01T23:10:05.333Z,112.83
2022-11-01T23:12:52.622Z,119.27
2022-11-01T23:15:26.973Z,112.43
2022-11-01T23:17:53.653Z,107.70
2022-11-01T23:20:20.217Z,109.40
2022-11-01T23:22:46.629Z,104.67
2022-11-01T23:25:13.143Z,112.17
2022-11-01T23:27:41.298Z,102.67
2022-11-01T23:30:08.226Z,117.13
2022-11-01T23:32:34.771Z,112.73
2022-11-01T23:35:11.017Z,106.77
2022-11-01T23:37:37.511Z,118.77
2022-11-01T23:40:08.585Z,121.47
2022-11-01T23:42:35.195Z,113.73
2022-11-01T23:45:09.475Z,128.97
2022-11-01T23:47:44.936Z,122.83
2022-11-01T23:50:22.910Z,123.37
2022-11-01T23:52:58.452Z,110.83
2022-11-01T23:55:31.188Z,137.47
2022-11-01T23:58:00.342Z,124.70
